createdAt,value
2019-02-22T00:00:10.582Z,30.10
2019-02-22T00:02:40.653Z,33.40
2019-02-22T00:05:10.383Z,29.47
2019-02-22T00:07:39.265Z,31.77
2019-02-22T00:10:09.023Z,39.33
2019-02-22T00:12:37.800Z,27.17
2019-02-22T00:15:07.344Z,29.83
2019-02-22T00:17:36.174Z,29.10
2019-02-22T00:20:05.466Z,36.85
2019-02-22T00:22:34.253Z,32.90
2019-02-22T00:25:03.153Z,36.97
2019-02-22T00:27:32.094Z,40.97
2019-02-22T00:30:00.936Z,38.87
2019-02-22T00:32:29.856Z,29.90
2019-02-22T00:34:59.074Z,31.60
2019-02-22T00:37:28.020Z,34.83
2019-02-22T00:39:56.919Z,30.77
2019-02-22T00:42:25.706Z,32.73
2019-02-22T00:44:54.601Z,31.73
2019-02-22T00:47:23.466Z,44.13
2019-02-22T00:49:53.330Z,27.53
2019-02-22T00:52:22.205Z,27.87
2019-02-22T00:54:51.081Z,36.07
2019-02-22T00:57:20.158Z,33.63
2019-02-22T00:59:48.943Z,31.23
2019-02-22T01:02:17.827Z,29.40
2019-02-22T01:04:46.649Z,34.27
2019-02-22T01:07:15.563Z,29.70
2019-02-22T01:09:44.601Z,32.20
2019-02-22T01:12:14.004Z,31.70
2019-02-22T01:14:42.786Z,29.03
2019-02-22T01:17:11.953Z,29.90
2019-02-22T01:19:41.303Z,25.92
2019-02-22T01:22:10.125Z,28.07
2019-02-22T01:24:39.206Z,26.40
2019-02-22T01:27:08.005Z,30.45
2019-02-22T01:29:37.070Z,33.70
2019-02-22T01:32:05.846Z,26.83
2019-02-22T01:34:34.626Z,32.45
2019-02-22T01:37:03.689Z,30.62
2019-02-22T01:39:32.476Z,29.67
2019-02-22T01:42:01.259Z,31.68
2019-02-22T01:44:30.357Z,31.87
2019-02-22T01:46:59.393Z,28.60
2019-02-22T01:49:28.173Z,41.35
2019-02-22T01:51:57.481Z,30.17
2019-02-22T01:54:26.305Z,36.45
2019-02-22T01:56:55.155Z,33.60
2019-02-22T01:59:23.947Z,32.40
2019-02-22T02:01:53.442Z,31.02
2019-02-22T02:04:22.289Z,33.10
2019-02-22T02:06:51.170Z,33.60
2019-02-22T02:09:20.231Z,30.30
2019-02-22T02:11:49.296Z,31.82
2019-02-22T02:14:18.097Z,30.55
2019-02-22T02:16:46.905Z,31.80
2019-02-22T02:19:15.705Z,28.73
2019-02-22T02:21:44.536Z,29.87
2019-02-22T02:24:13.305Z,34.97
2019-02-22T02:26:42.329Z,32.27
2019-02-22T02:29:11.110Z,28.62
2019-02-22T02:31:39.911Z,28.57
2019-02-22T02:34:09.089Z,28.83
2019-02-22T02:36:38.009Z,27.77
2019-02-22T02:39:06.933Z,29.63
2019-02-22T02:41:35.800Z,29.63
2019-02-22T02:44:04.915Z,31.73
2019-02-22T02:46:34.028Z,29.03
2019-02-22T02:49:02.829Z,29.00
2019-02-22T02:51:31.649Z,27.45
2019-02-22T02:54:00.429Z,26.57
2019-02-22T02:56:29.254Z,31.40
2019-02-22T02:58:58.150Z,32.73
2019-02-22T03:01:28.344Z,29.33
2019-02-22T03:03:57.294Z,29.53
2019-02-22T03:06:37.239Z,31.97
2019-02-22T03:09:09.098Z,25.47
2019-02-22T03:11:37.897Z,33.40
2019-02-22T03:14:06.778Z,29.90
2019-02-22T03:16:35.940Z,26.23
2019-02-22T03:19:04.729Z,28.53
2019-02-22T03:21:33.542Z,27.57
2019-02-22T03:24:02.338Z,26.33
2019-02-22T03:26:31.178Z,27.00
2019-02-22T03:29:00.013Z,26.70
2019-02-22T03:31:28.814Z,25.20
2019-02-22T03:33:57.691Z,25.80
2019-02-22T03:36:26.558Z,24.57
2019-02-22T03:38:55.364Z,23.03
2019-02-22T03:41:32.367Z,28.20
2019-02-22T03:43:54.761Z,29.60
2019-02-22T03:46:25.174Z,23.97
2019-02-22T03:48:54.018Z,24.67
2019-02-22T03:51:22.873Z,22.70
2019-02-22T03:53:57.426Z,27.53
2019-02-22T03:56:26.013Z,30.63
2019-02-22T03:58:54.877Z,23.47
2019-02-22T04:01:23.744Z,32.03
2019-02-22T04:03:52.729Z,26.30
2019-02-22T04:06:21.551Z,27.93
2019-02-22T04:08:50.459Z,27.30
2019-02-22T04:11:19.342Z,23.87
2019-02-22T04:13:48.192Z,26.20
2019-02-22T04:16:17.054Z,25.20
2019-02-22T04:18:45.993Z,25.70
2019-02-22T04:21:14.790Z,23.80
2019-02-22T04:23:43.589Z,26.67
2019-02-22T04:26:12.698Z,33.63
2019-02-22T04:28:41.493Z,29.37
2019-02-22T04:31:10.355Z,24.80
2019-02-22T04:33:39.245Z,34.23
2019-02-22T04:36:08.295Z,34.80
2019-02-22T04:38:37.426Z,41.67
2019-02-22T04:41:06.218Z,30.87
2019-02-22T04:43:35.055Z,27.77
2019-02-22T04:46:04.005Z,34.10
2019-02-22T04:48:32.816Z,27.40
2019-02-22T04:51:01.889Z,34.50
2019-02-22T04:53:30.811Z,34.13
2019-02-22T04:55:59.645Z,38.90
2019-02-22T04:58:28.441Z,28.47
2019-02-22T05:00:57.270Z,26.90
2019-02-22T05:03:31.115Z,29.23
2019-02-22T05:05:59.907Z,27.43
2019-02-22T05:08:29.079Z,33.37
2019-02-22T05:10:58.130Z,39.90
2019-02-22T05:13:27.261Z,34.50
2019-02-22T05:15:56.227Z,36.10
2019-02-22T05:18:25.121Z,37.10
2019-02-22T05:20:53.937Z,48.37
2019-02-22T05:23:22.819Z,51.60
2019-02-22T05:25:51.642Z,43.10
2019-02-22T05:28:20.520Z,50.30
2019-02-22T05:30:49.451Z,44.93
2019-02-22T05:33:18.561Z,48.23
2019-02-22T05:35:47.858Z,51.63
2019-02-22T05:38:16.658Z,62.37
2019-02-22T05:43:15.462Z,53.63
2019-02-22T05:45:44.251Z,60.60
2019-02-22T05:48:13.041Z,59.40
2019-02-22T05:50:41.918Z,63.47
2019-02-22T05:53:11.066Z,51.63
2019-02-22T05:55:40.134Z,54.63
2019-02-22T05:58:09.046Z,62.53
2019-02-22T06:00:37.862Z,57.20
2019-02-22T06:03:06.674Z,65.70
2019-02-22T06:05:35.645Z,57.07
2019-02-22T06:08:04.837Z,62.87
2019-02-22T06:10:34.010Z,55.73
2019-02-22T06:13:02.893Z,61.20
2019-02-22T06:15:31.705Z,71.30
2019-02-22T06:18:00.824Z,69.13
2019-02-22T06:20:29.698Z,66.93
2019-02-22T06:22:58.465Z,66.87
2019-02-22T06:25:27.574Z,64.70
2019-02-22T06:27:56.430Z,65.35
2019-02-22T06:30:25.650Z,78.03
2019-02-22T06:32:54.798Z,69.23
2019-02-22T06:38:52.906Z,82.10
2019-02-22T06:41:21.746Z,74.33
2019-02-22T06:43:50.609Z,69.07
2019-02-22T06:46:19.666Z,58.30
2019-02-22T06:48:48.715Z,63.73
2019-02-22T06:51:17.578Z,65.10
2019-02-22T06:53:46.382Z,67.60
2019-02-22T06:56:15.419Z,70.17
2019-02-22T06:58:47.358Z,83.27
2019-02-22T07:01:16.506Z,71.97
2019-02-22T07:03:45.565Z,64.37
2019-02-22T07:06:14.371Z,64.50
2019-02-22T07:08:43.136Z,67.10
2019-02-22T07:11:34.428Z,65.53
2019-02-22T07:14:09.677Z,64.50
2019-02-22T07:16:40.521Z,68.30
2019-02-22T07:19:09.406Z,62.50
2019-02-22T07:21:51.568Z,66.37
2019-02-22T07:24:10.156Z,61.10
2019-02-22T07:26:41.716Z,72.67
2019-02-22T07:29:10.600Z,69.10
2019-02-22T07:31:39.760Z,64.13
2019-02-22T07:34:08.554Z,71.50
2019-02-22T07:36:37.341Z,56.33
2019-02-22T07:39:07.513Z,89.73
2019-02-22T07:41:38.920Z,74.10
2019-02-22T07:44:07.792Z,72.83
2019-02-22T07:46:42.777Z,62.20
2019-02-22T07:49:13.521Z,60.90
2019-02-22T07:51:42.312Z,76.13
2019-02-22T07:54:13.117Z,70.13
2019-02-22T07:56:42.031Z,77.13
2019-02-22T07:59:11.141Z,62.33
2019-02-22T08:01:47.265Z,66.33
2019-02-22T08:04:10.435Z,62.30
2019-02-22T08:06:39.229Z,75.30
2019-02-22T08:09:08.088Z,71.87
2019-02-22T08:11:38.008Z,66.07
2019-02-22T08:14:07.869Z,60.13
2019-02-22T08:16:37.116Z,69.17
2019-02-22T08:19:05.975Z,73.53
2019-02-22T08:21:34.752Z,74.13
2019-02-22T08:24:03.531Z,69.57
2019-02-22T08:26:32.571Z,74.80
2019-02-22T08:29:01.611Z,82.93
2019-02-22T08:31:30.719Z,75.40
2019-02-22T08:33:59.746Z,82.40
2019-02-22T08:36:28.868Z,74.23
2019-02-22T08:38:57.928Z,80.00
2019-02-22T08:41:27.592Z,73.97
2019-02-22T08:43:56.654Z,78.43
2019-02-22T08:46:25.797Z,66.50
2019-02-22T08:48:54.593Z,74.57
2019-02-22T08:51:23.469Z,72.37
2019-02-22T08:53:52.536Z,69.80
2019-02-22T08:56:21.589Z,65.17
2019-02-22T08:58:50.681Z,62.20
2019-02-22T09:01:19.574Z,65.50
2019-02-22T09:03:50.950Z,60.60
2019-02-22T09:06:18.903Z,68.43
2019-02-22T09:08:47.781Z,64.90
2019-02-22T09:11:16.565Z,62.77
2019-02-22T09:13:45.382Z,61.43
2019-02-22T09:16:14.261Z,70.73
2019-02-22T09:18:43.073Z,67.27
2019-02-22T09:21:11.929Z,62.03
2019-02-22T09:23:40.720Z,56.77
2019-02-22T09:26:11.245Z,56.07
2019-02-22T09:28:40.043Z,44.77
2019-02-22T09:31:09.086Z,40.27
2019-02-22T09:33:37.885Z,45.83
2019-02-22T09:36:06.867Z,47.17
2019-02-22T09:38:35.829Z,39.27
2019-02-22T09:41:04.693Z,41.07
2019-02-22T09:43:33.838Z,38.27
2019-02-22T09:46:03.721Z,41.40
2019-02-22T09:48:32.773Z,38.00
2019-02-22T09:51:03.729Z,37.30
2019-02-22T09:53:32.561Z,39.23
2019-02-22T09:56:01.405Z,37.77
2019-02-22T09:58:30.268Z,28.60
2019-02-22T10:01:00.396Z,30.37
2019-02-22T10:03:32.256Z,32.47
2019-02-22T10:06:01.218Z,31.57
2019-02-22T10:08:30.189Z,30.70
2019-02-22T10:10:59.089Z,29.23
2019-02-22T10:13:27.892Z,31.10
2019-02-22T10:15:56.697Z,29.43
2019-02-22T10:21:08.117Z,30.63
2019-02-22T10:23:38.027Z,24.37
2019-02-22T10:26:07.311Z,29.53
2019-02-22T10:28:36.178Z,28.17
2019-02-22T10:31:05.478Z,30.30
2019-02-22T10:33:36.860Z,26.00
2019-02-22T10:36:05.385Z,22.50
2019-02-22T10:38:35.998Z,22.50
2019-02-22T10:41:05.113Z,26.20
2019-02-22T10:43:33.954Z,21.40
2019-02-22T10:46:02.923Z,22.27
2019-02-22T10:48:31.771Z,27.30
2019-02-22T10:51:00.996Z,26.53
2019-02-22T10:53:29.816Z,33.30
2019-02-22T10:55:58.974Z,29.50
2019-02-22T10:58:27.786Z,32.43
2019-02-22T11:00:56.576Z,55.40
2019-02-22T11:03:25.634Z,44.57
2019-02-22T11:05:54.694Z,56.30
2019-02-22T11:08:23.732Z,40.63
2019-02-22T11:10:52.733Z,40.07
2019-02-22T11:13:21.862Z,39.90
2019-02-22T11:15:50.926Z,35.77
2019-02-22T11:18:19.780Z,34.83
2019-02-22T11:20:48.843Z,37.60
2019-02-22T11:23:18.188Z,31.37
2019-02-22T11:25:47.001Z,33.53
2019-02-22T11:28:16.091Z,35.70
2019-02-22T11:30:44.961Z,30.83
2019-02-22T11:33:13.766Z,27.20
2019-02-22T11:35:42.874Z,27.13
2019-02-22T15:05:08.976Z,13.57
2019-02-22T15:07:37.179Z,15.80
2019-02-22T15:10:06.528Z,17.73
2019-02-22T15:12:35.438Z,11.73
2019-02-22T15:15:04.897Z,16.20
2019-02-22T15:17:38.281Z,13.83
2019-02-22T15:20:08.379Z,14.27
2019-02-22T15:22:37.363Z,24.43
2019-02-22T15:25:07.961Z,14.60
2019-02-22T15:27:36.929Z,12.83
2019-02-22T15:30:06.075Z,12.97
2019-02-22T15:32:34.949Z,23.47
2019-02-22T15:35:04.177Z,11.27
2019-02-22T15:37:34.115Z,14.37
2019-02-22T15:40:03.175Z,19.33
2019-02-22T15:42:32.019Z,14.90
2019-02-22T15:45:00.821Z,14.00
2019-02-22T15:47:29.677Z,12.37
2019-02-22T15:49:58.498Z,13.40
2019-02-22T15:52:27.341Z,14.40
2019-02-22T15:54:56.162Z,15.50
2019-02-22T15:57:25.309Z,15.63
2019-02-22T15:59:54.211Z,16.63
2019-02-22T16:02:23.031Z,15.40
2019-02-22T16:04:58.327Z,15.17
2019-02-22T16:07:27.888Z,18.63
2019-02-22T16:09:56.757Z,15.70
2019-02-22T16:12:25.661Z,13.83
2019-02-22T16:15:08.227Z,20.10
2019-02-22T16:17:37.375Z,16.70
2019-02-22T16:20:06.430Z,12.13
2019-02-22T16:22:35.980Z,11.43
2019-02-22T16:25:04.989Z,14.03
2019-02-22T16:27:33.884Z,20.43
2019-02-22T16:30:03.602Z,13.97
2019-02-22T16:32:32.539Z,13.70
2019-02-22T16:35:01.670Z,13.33
2019-02-22T16:37:31.258Z,12.70
2019-02-22T16:40:01.964Z,18.73
2019-02-22T16:42:32.206Z,16.57
2019-02-22T16:45:01.340Z,14.10
2019-02-22T16:47:39.471Z,14.80
2019-02-22T16:50:01.086Z,14.37
2019-02-22T16:52:45.372Z,17.20
2019-02-22T16:55:15.434Z,13.27
2019-02-22T16:57:47.921Z,18.07
2019-02-22T17:00:17.545Z,21.53
2019-02-22T17:02:46.573Z,16.40
2019-02-22T17:05:15.933Z,19.70
2019-02-22T17:07:44.828Z,12.93
2019-02-22T17:10:13.803Z,18.37
2019-02-22T17:12:42.722Z,14.10
2019-02-22T17:15:11.689Z,15.20
2019-02-22T17:17:40.851Z,13.73
2019-02-22T17:20:10.320Z,20.23
2019-02-22T17:22:39.489Z,16.52
2019-02-22T17:25:09.577Z,17.53
2019-02-22T17:27:38.989Z,29.18
2019-02-22T17:30:09.918Z,23.70
2019-02-22T17:32:38.751Z,19.60
2019-02-22T17:35:07.747Z,24.00
2019-02-22T17:37:36.565Z,19.70
2019-02-22T17:40:07.420Z,27.40
2019-02-22T17:42:36.225Z,24.32
2019-02-22T17:45:05.484Z,26.20
2019-02-22T17:47:34.331Z,21.52
2019-02-22T17:50:03.318Z,21.45
2019-02-22T17:52:32.371Z,20.80
2019-02-22T17:55:01.198Z,20.00
2019-02-22T17:57:31.708Z,16.40
2019-02-22T18:00:00.549Z,20.68
2019-02-22T18:02:29.360Z,21.73
2019-02-22T18:04:58.438Z,20.88
2019-02-22T18:07:27.353Z,20.30
2019-02-22T18:09:56.717Z,22.17
2019-02-22T18:12:25.525Z,22.93
2019-02-22T18:14:54.326Z,24.82
2019-02-22T18:17:23.405Z,19.35
2019-02-22T18:19:52.797Z,23.20
2019-02-22T18:22:25.817Z,31.20
2019-02-22T18:24:52.537Z,28.02
2019-02-22T18:27:21.358Z,27.45
2019-02-22T18:29:50.155Z,30.10
2019-02-22T18:32:19.273Z,30.45
2019-02-22T18:34:48.071Z,31.33
2019-02-22T18:37:16.870Z,30.37
2019-02-22T18:39:45.953Z,32.13
2019-02-22T18:42:15.138Z,25.57
2019-02-22T18:44:44.011Z,25.70
2019-02-22T18:47:19.252Z,22.80
2019-02-22T18:49:43.334Z,23.67
2019-02-22T18:52:12.219Z,32.67
2019-02-22T18:54:41.297Z,27.20
2019-02-22T18:57:10.771Z,29.52
2019-02-22T18:59:39.594Z,20.65
2019-02-22T19:02:08.404Z,26.57
2019-02-22T19:04:37.716Z,23.22
2019-02-22T19:07:06.500Z,22.98
2019-02-22T19:09:35.294Z,22.48
2019-02-22T19:12:04.181Z,25.30
2019-02-22T19:14:33.033Z,22.80
2019-02-22T19:17:02.085Z,23.20
2019-02-22T19:19:34.985Z,20.35
2019-02-22T19:22:03.773Z,29.77
2019-02-22T19:24:32.587Z,26.82
2019-02-22T19:27:01.426Z,23.65
2019-02-22T19:29:30.463Z,35.88
2019-02-22T19:31:59.245Z,29.40
2019-02-22T19:34:28.435Z,28.57
2019-02-22T19:36:57.239Z,27.82
2019-02-22T19:39:26.062Z,50.43
2019-02-22T19:41:54.862Z,31.45
2019-02-22T19:44:24.226Z,27.25
2019-02-22T19:46:55.620Z,25.88
2019-02-22T19:49:24.231Z,32.95
2019-02-22T19:51:53.050Z,29.10
2019-02-22T19:54:22.221Z,27.73
2019-02-22T19:56:51.021Z,39.90
2019-02-22T20:02:48.090Z,28.00
2019-02-22T20:05:17.122Z,23.45
2019-02-22T20:07:46.313Z,39.75
2019-02-22T20:10:18.353Z,26.20
2019-02-22T20:12:46.609Z,25.68
2019-02-22T20:15:15.913Z,23.12
2019-02-22T20:17:53.784Z,23.18
2019-02-22T20:20:16.567Z,24.92
2019-02-22T20:22:45.552Z,25.48
2019-02-22T20:25:15.061Z,24.52
2019-02-22T20:27:44.211Z,25.00
2019-02-22T20:30:14.647Z,29.87
2019-02-22T20:32:43.557Z,28.77
2019-02-22T20:35:14.725Z,26.20
2019-02-22T20:37:51.873Z,22.32
2019-02-22T20:40:14.121Z,20.02
2019-02-22T20:42:42.935Z,24.55
2019-02-22T20:45:12.425Z,27.32
2019-02-22T20:47:41.562Z,23.40
2019-02-22T20:50:10.884Z,25.40
2019-02-22T20:52:39.954Z,31.55
2019-02-22T20:55:09.091Z,26.55
2019-02-22T20:57:38.760Z,26.55
2019-02-22T21:00:10.532Z,24.23
2019-02-22T21:02:39.389Z,25.23
2019-02-22T21:05:09.132Z,26.15
2019-02-22T21:07:37.929Z,20.85
2019-02-22T21:10:08.941Z,26.82
2019-02-22T21:12:38.805Z,24.50
2019-02-22T21:15:10.104Z,27.48
2019-02-22T21:17:39.297Z,27.48
2019-02-22T21:20:10.541Z,25.32
2019-02-22T21:22:39.649Z,26.42
2019-02-22T21:25:09.363Z,28.50
2019-02-22T21:27:39.628Z,19.35
2019-02-22T21:30:09.983Z,21.73
2019-02-22T21:32:39.080Z,25.25
2019-02-22T21:35:08.171Z,24.67
2019-02-22T21:37:37.048Z,41.58
2019-02-22T21:40:06.585Z,23.00
2019-02-22T21:42:35.378Z,20.75
2019-02-22T21:45:04.330Z,31.75
2019-02-22T21:47:33.520Z,23.65
2019-02-22T21:50:02.581Z,28.60
2019-02-22T21:52:31.605Z,25.57
2019-02-22T21:55:00.669Z,22.50
2019-02-22T21:57:29.454Z,26.20
2019-02-22T22:00:00.588Z,30.17
2019-02-22T22:02:31.692Z,24.18
2019-02-22T22:05:00.567Z,34.53
2019-02-22T22:07:29.382Z,21.70
2019-02-22T22:09:58.181Z,26.52
2019-02-22T22:12:27.293Z,27.65
2019-02-22T22:14:56.093Z,25.97
2019-02-22T22:17:27.329Z,29.30
2019-02-22T22:19:57.626Z,25.50
2019-02-22T22:22:27.888Z,29.10
2019-02-22T22:24:56.953Z,30.90
2019-02-22T22:27:25.753Z,27.60
2019-02-22T22:29:54.681Z,26.23
2019-02-22T22:32:23.738Z,26.00
2019-02-22T22:34:52.793Z,31.07
2019-02-22T22:37:21.912Z,28.45
2019-02-22T22:39:50.949Z,26.42
2019-02-22T22:42:19.725Z,26.68
2019-02-22T22:44:48.845Z,34.25
2019-02-22T22:47:17.938Z,26.90
2019-02-22T22:49:46.840Z,30.32
2019-02-22T22:52:15.605Z,25.23
2019-02-22T22:54:44.373Z,28.98
2019-02-22T22:57:13.170Z,29.42
2019-02-22T22:59:42.457Z,23.40
2019-02-22T23:02:11.241Z,25.00
2019-02-22T23:04:40.044Z,34.50
2019-02-22T23:07:08.904Z,27.95
2019-02-22T23:09:37.937Z,26.55
2019-02-22T23:12:06.878Z,25.65
2019-02-22T23:14:36.014Z,27.48
2019-02-22T23:17:04.949Z,26.00
2019-02-22T23:19:33.744Z,26.57
2019-02-22T23:22:02.792Z,30.27
2019-02-22T23:24:31.581Z,27.10
2019-02-22T23:27:00.446Z,27.42
2019-02-22T23:29:29.241Z,26.52
2019-02-22T23:31:58.107Z,28.87
2019-02-22T23:34:26.920Z,28.42
2019-02-22T23:36:55.716Z,25.57
2019-02-22T23:39:24.489Z,29.18
2019-02-22T23:41:53.356Z,24.25
2019-02-22T23:44:22.398Z,31.20
2019-02-22T23:46:51.449Z,27.75
2019-02-22T23:49:20.300Z,34.53
2019-02-22T23:51:49.381Z,29.12
2019-02-22T23:54:18.168Z,32.93
2019-02-22T23:56:46.944Z,32.08
2019-02-22T23:59:15.728Z,34.00
